This is the latest recevied weather packets stored in our database for station/object VA6NA. If no packets are shown the sender has not sent any weather packets the latest 10 day(s).
| Time | Temp. | Humidity | Pressure | Rain* | Wind** | Luminosity | Snow |
|---|---|---|---|---|---|---|---|
| 1777986018 | 1.67° C | 76% | 1025.1 hPa | 0 mm | - | - | - |
| 1777984227 | -1.11° C | 83% | 1025.1 hPa | 0 mm | - | - | - |
| 1777982419 | -2.78° C | 86% | 1025.1 hPa | 0 mm | - | - | - |
| 1777976449 | -1.67° C | 86% | 1024.9 hPa | 0 mm | - | - | - |
| 1777971021 | -0.56° C | 84% | 1024.2 hPa | 0 mm | - | - | - |
| 1777969226 | 0° C | 82% | 1024 hPa | 0 mm | - | - | - |
| 1777967430 | 0.56° C | 80% | 1023.8 hPa | 0 mm | - | - | - |
| 1777965633 | 1.11° C | 79% | 1023.7 hPa | 0 mm | - | - | - |
| 1777962016 | 2.22° C | 75% | 1023.5 hPa | 0 mm | - | - | - |
| 1777960226 | 3.33° C | 72% | 1023.5 hPa | 0 mm | - | - | - |
| 1777959626 | 3.89° C | 70% | 1023.3 hPa | 0 mm | - | - | - |
| 1777954817 | 5.56° C | 63% | 1022.6 hPa | 0 mm | - | - | - |
| 1777951829 | 6.67° C | 61% | 1021.8 hPa | 0 mm | - | - | - |
| 1777951230 | 7.22° C | 60% | 1021.7 hPa | 0 mm | - | - | - |
| 1777948218 | 9.44° C | 51% | 1021.1 hPa | 0 mm | - | - | - |
| 1777945858 | 10.56° C | 48% | 1020.8 hPa | 0 mm | - | - | - |
| 1777942823 | 10.56° C | 47% | 1020.6 hPa | 0 mm | - | - | - |
| 1777939828 | 11.67° C | 43% | 1020.3 hPa | 0 mm | - | - | - |
| 1777935666 | 13.89° C | 40% | 1019.8 hPa | 0 mm | - | - | - |
| 1777934442 | 12.22° C | 42% | 1020.1 hPa | 0 mm | - | - | - |
| 1777933219 | 12.78° C | 42% | 1020.1 hPa | 0 mm | - | - | - |
| 1777927843 | 12.78° C | 44% | 1020.5 hPa | 0 mm | - | - | - |
| 1777922431 | 10.56° C | 50% | 1020.8 hPa | 0 mm | - | - | - |
| 1777921833 | 10.56° C | 51% | 1021 hPa | 0 mm | - | - | - |
| 1777920637 | 10.56° C | 53% | 1021 hPa | 0 mm | - | - | - |
* Rain latest hour (hover to see other rain measurements)
** Current wind speed in m/s (hover to see current wind gust speed)